Time;durP1;ratioP1;P1;durP2;ratioP2;P2;SDS_P1;SDS_P2;PMS_P1;PMS_P2;Temp;Humidity;BMP_temperature;BMP_pressure;BME280_temperature;BME280_humidity;BME280_pressure;Samples;Min_cycle;Max_cycle;Signal;HPM_P1;HPM_P2
2023/09/16 00:03:46;;;;;;;3.83;3.47;;;;;;;12.94;100.00;151933.84;10463182;28;20045;-72
2023/09/16 00:08:48;;;;;;;4.85;4.40;;;;;;;13.03;99.63;151957.13;10462732;28;20076;-72
2023/09/16 00:13:50;;;;;;;3.88;3.47;;;;;;;13.18;98.59;151994.63;10461428;28;20049;-72
2023/09/16 00:18:52;;;;;;;4.68;4.18;;;;;;;12.98;99.47;151944.19;10463191;28;20131;-72
2023/09/16 00:23:54;;;;;;;3.70;3.40;;;;;;;12.74;100.00;151883.38;10460503;28;20111;-72
2023/09/16 00:28:56;;;;;;;4.35;3.95;;;;;;;12.71;100.00;151874.38;10460753;28;20029;-72
2023/09/16 00:33:58;;;;;;;4.63;4.22;;;;;;;12.66;100.00;151861.41;10459507;28;20111;-72
2023/09/16 00:39:00;;;;;;;5.65;5.05;;;;;;;12.62;100.00;151853.66;10461315;28;20484;-72
2023/09/16 00:44:02;;;;;;;4.60;4.20;;;;;;;12.61;100.00;151849.75;10459721;28;20040;-72
2023/09/16 00:49:04;;;;;;;4.68;4.28;;;;;;;12.89;100.00;151920.91;10459377;28;20049;-72
2023/09/16 00:54:06;;;;;;;4.68;4.28;;;;;;;12.74;100.00;151882.09;10459453;28;20095;-71
2023/09/16 00:59:08;;;;;;;4.47;4.18;;;;;;;12.69;100.00;151869.16;10460764;28;20049;-72
2023/09/16 01:04:11;;;;;;;5.05;4.55;;;;;;;12.61;100.00;151851.03;10459165;28;20041;-72
2023/09/16 01:09:15;;;;;;;5.25;4.45;;;;;;;12.70;100.00;151871.75;10459559;28;20038;-71
2023/09/16 01:14:17;;;;;;;5.30;4.82;;;;;;;12.62;100.00;151853.66;10460139;28;20071;-72
2023/09/16 01:19:19;;;;;;;5.10;4.60;;;;;;;12.54;100.00;151832.97;10458645;28;20053;-72
2023/09/16 01:24:24;;;;;;;5.40;4.97;;;;;;;12.47;100.00;151814.84;10459841;28;20080;-72
2023/09/16 01:29:27;;;;;;;5.45;4.95;;;;;;;12.41;100.00;151798.06;10457383;28;20041;-72
2023/09/16 01:34:47;;;;;;;6.50;5.90;;;;;;;12.35;100.00;151785.16;10460222;28;20068;-71
2023/09/16 01:39:55;;;;;;;5.50;5.05;;;;;;;12.35;100.00;151783.81;10457904;28;20431;-72
2023/09/16 01:45:01;;;;;;;7.32;5.75;;;;;;;12.31;100.00;151773.50;10460523;28;20048;-72
2023/09/16 01:50:05;;;;;;;6.85;6.22;;;;;;;12.39;100.00;151794.16;10458287;28;20068;-72
2023/09/16 01:55:07;;;;;;;6.30;5.80;;;;;;;12.38;100.00;151791.59;10457802;28;20079;-72
2023/09/16 02:00:10;;;;;;;9.27;5.95;;;;;;;12.42;100.00;151800.63;10458743;28;20029;-72
2023/09/16 02:05:15;;;;;;;5.90;5.43;;;;;;;12.46;100.00;151811.00;10457986;28;20056;-72
2023/09/16 02:10:17;;;;;;;6.97;6.47;;;;;;;12.35;100.00;151783.81;10456518;28;20045;-71
2023/09/16 02:15:19;;;;;;;6.63;6.10;;;;;;;12.35;100.00;151783.81;10440716;28;20045;-71
2023/09/16 02:20:21;;;;;;;6.45;5.85;;;;;;;12.21;100.00;151748.91;10456223;28;20049;-71
2023/09/16 02:25:23;;;;;;;6.50;6.00;;;;;;;12.20;100.00;151746.34;10458717;28;20500;-71
2023/09/16 02:30:25;;;;;;;6.43;5.85;;;;;;;12.14;100.00;151730.84;10440097;28;20056;-71
2023/09/16 02:35:28;;;;;;;6.78;6.03;;;;;;;12.03;100.00;151703.66;10456611;28;20447;-72
2023/09/16 02:40:29;;;;;;;6.80;6.20;;;;;;;12.16;100.00;151734.69;10461442;28;20041;-71
2023/09/16 02:45:31;;;;;;;6.32;5.82;;;;;;;12.30;100.00;151770.88;10463892;28;20140;-71
2023/09/16 02:50:46;;;;;;;6.43;5.93;;;;;;;12.12;100.00;151725.63;10465536;28;20045;-71
2023/09/16 02:55:47;;;;;;;6.97;6.38;;;;;;;12.02;100.00;151699.81;10464298;28;20068;-71
2023/09/16 03:00:49;;;;;;;6.95;6.45;;;;;;;12.03;100.00;151703.66;10464549;28;20416;-72
2023/09/16 03:05:51;;;;;;;6.65;6.07;;;;;;;11.96;100.00;151685.59;10446465;28;20548;-72
2023/09/16 03:11:03;;;;;;;7.25;6.75;;;;;;;11.88;100.00;151664.91;10464020;28;20037;-72
2023/09/16 03:16:22;;;;;;;6.65;6.13;;;;;;;11.99;100.00;151692.03;10462058;28;20135;-72
2023/09/16 03:21:28;;;;;;;6.80;6.20;;;;;;;12.24;100.00;151756.69;10461618;28;20137;-72
2023/09/16 03:26:38;;;;;;;6.32;5.72;;;;;;;12.20;100.00;151746.34;10462117;28;20055;-72
2023/09/16 03:31:40;;;;;;;7.18;6.63;;;;;;;11.96;100.00;151685.59;10446921;28;20095;-71
2023/09/16 03:36:49;;;;;;;6.78;6.07;;;;;;;11.83;100.00;151652.00;10461899;28;20056;-72
2023/09/16 03:41:51;;;;;;;6.38;5.85;;;;;;;11.92;100.00;151675.25;10445081;28;20049;-72
2023/09/16 03:46:54;;;;;;;6.28;5.75;;;;;;;11.80;100.00;151644.19;10461019;28;20052;-72
2023/09/16 03:51:56;;;;;;;6.97;6.32;;;;;;;11.84;100.00;151654.56;10461529;28;20055;-72
2023/09/16 03:56:58;;;;;;;7.15;5.88;;;;;;;11.81;100.00;151648.03;10460926;28;20077;-71
2023/09/16 04:02:00;;;;;;;6.13;5.63;;;;;;;11.76;100.00;151635.13;10460919;28;20079;-71
2023/09/16 04:07:03;;;;;;;7.05;6.45;;;;;;;11.64;100.00;151604.09;10460104;28;20052;-71
2023/09/16 04:12:05;;;;;;;6.03;5.53;;;;;;;11.93;100.00;151677.84;10461254;28;20106;-71
2023/09/16 04:17:07;;;;;;;5.88;5.43;;;;;;;11.66;100.00;151608.00;10461760;28;20550;-71
2023/09/16 04:22:09;;;;;;;6.18;5.68;;;;;;;11.73;100.00;151626.06;10460586;28;20045;-72
2023/09/16 04:27:11;;;;;;;7.53;6.97;;;;;;;11.59;100.00;151592.47;10461220;28;20064;-71
2023/09/16 04:32:13;;;;;;;6.57;5.95;;;;;;;11.55;100.00;151582.19;10459884;28;20049;-72
2023/09/16 04:37:16;;;;;;;6.75;6.15;;;;;;;11.50;100.00;151569.22;10462482;28;20430;-72
2023/09/16 04:42:18;;;;;;;8.32;6.63;;;;;;;11.66;100.00;151609.28;10459183;28;20083;-72
2023/09/16 04:47:21;;;;;;;6.75;6.22;;;;;;;11.81;100.00;151646.75;10458810;28;20076;-72
2023/09/16 04:52:30;;;;;;;7.22;6.63;;;;;;;12.00;100.00;151695.94;10458671;28;20049;-72
2023/09/16 04:57:34;;;;;;;8.30;7.70;;;;;;;11.83;100.00;151652.00;10443961;28;20067;-72
2023/09/16 05:02:36;;;;;;;7.88;6.78;;;;;;;11.99;100.00;151693.31;10457871;28;20072;-71
2023/09/16 05:07:38;;;;;;;6.85;6.35;;;;;;;11.83;100.00;151653.28;10457861;28;20045;-72
2023/09/16 05:12:41;;;;;;;7.28;6.57;;;;;;;11.88;100.00;151664.91;10441138;28;20127;-72
2023/09/16 05:17:43;;;;;;;7.47;6.88;;;;;;;12.00;100.00;151695.94;10458881;28;20051;-72
2023/09/16 05:22:50;;;;;;;7.28;6.65;;;;;;;11.73;100.00;151627.41;10456898;28;20041;-72
2023/09/16 05:27:56;;;;;;;6.43;5.82;;;;;;;11.85;100.00;151657.13;10441282;28;20045;-72
2023/09/16 05:32:58;;;;;;;7.25;6.60;;;;;;;12.28;100.00;151765.72;10440461;28;20049;-72
2023/09/16 05:38:00;;;;;;;16.75;7.13;;;;;;;12.19;100.00;151743.75;10457340;28;20049;-72
2023/09/16 05:43:03;;;;;;;6.57;5.97;;;;;;;12.36;100.00;151786.44;10459406;28;20041;-72
2023/09/16 05:48:05;;;;;;;6.63;6.13;;;;;;;12.61;100.00;151849.75;10456724;28;20050;-72
2023/09/16 05:53:12;;;;;;;6.60;6.00;;;;;;;12.75;100.00;151884.66;10456744;28;20048;-72
2023/09/16 05:58:14;;;;;;;5.90;5.00;;;;;;;12.91;100.00;151924.78;10441322;28;20045;-72
2023/09/16 06:03:16;;;;;;;6.03;5.43;;;;;;;13.13;100.00;151982.97;10442474;28;20049;-71
2023/09/16 06:08:19;;;;;;;5.63;5.13;;;;;;;13.68;100.00;152121.50;10458077;28;20037;-72
2023/09/16 06:13:22;;;;;;;4.50;4.20;;;;;;;14.01;100.00;152204.31;10459423;28;20495;-72
2023/09/16 06:18:26;;;;;;;3.83;3.45;;;;;;;14.37;99.48;152296.22;10465366;28;20045;-72
2023/09/16 06:23:29;;;;;;;4.05;3.75;;;;;;;14.64;96.63;152366.19;10466351;28;20045;-72
2023/09/16 06:28:33;;;;;;;4.15;3.80;;;;;;;14.87;95.17;152424.53;10464500;28;20132;-74
2023/09/16 06:33:35;;;;;;;4.88;4.45;;;;;;;14.82;94.31;152411.53;10463975;28;20097;-72
2023/09/16 06:38:38;;;;;;;5.03;3.72;;;;;;;14.99;94.56;152453.00;10463978;28;20438;-72
2023/09/16 06:43:40;;;;;;;4.20;3.80;;;;;;;15.49;88.56;152581.25;10465512;28;20075;-71
2023/09/16 06:48:45;;;;;;;4.20;3.50;;;;;;;15.62;87.22;152614.94;10463789;28;20044;-72
2023/09/16 06:53:47;;;;;;;4.72;3.83;;;;;;;15.39;90.06;152555.34;10463277;28;20068;-72
2023/09/16 06:58:49;;;;;;;3.28;2.97;;;;;;;15.78;88.11;152655.19;10463063;28;20041;-72
2023/09/16 07:03:51;;;;;;;3.55;2.47;;;;;;;16.19;84.26;152758.88;10463619;28;20048;-72
2023/09/16 07:08:53;;;;;;;2.95;2.67;;;;;;;16.23;84.29;152767.97;10467346;28;20045;-71
2023/09/16 07:13:55;;;;;;;2.70;2.50;;;;;;;16.44;82.77;152822.41;10462677;28;20455;-72
2023/09/16 07:18:57;;;;;;;2.58;2.10;;;;;;;16.39;83.07;152810.75;10464566;28;20033;-73
2023/09/16 07:24:02;;;;;;;3.60;2.55;;;;;;;16.81;79.94;152917.13;10463957;28;20065;-74
2023/09/16 07:29:05;;;;;;;2.97;2.47;;;;;;;16.88;80.92;152934.00;10462752;28;20048;-73
2023/09/16 07:34:06;;;;;;;2.92;2.10;;;;;;;17.07;78.41;152982.00;10462087;28;20073;-73
2023/09/16 07:39:08;;;;;;;3.55;2.42;;;;;;;17.35;77.57;153054.66;10462812;28;20044;-74
2023/09/16 07:44:10;;;;;;;2.78;2.58;;;;;;;17.39;77.66;153063.72;10461706;28;20110;-72
2023/09/16 07:49:12;;;;;;;3.55;2.80;;;;;;;17.48;76.79;153087.06;10463542;28;20033;-71
2023/09/16 07:54:14;;;;;;;2.58;2.10;;;;;;;17.76;75.94;153158.53;10463392;28;20037;-71
2023/09/16 07:59:20;;;;;;;2.95;2.63;;;;;;;18.01;73.00;153222.09;10460470;28;20052;-71
2023/09/16 08:04:21;;;;;;;2.57;2.10;;;;;;;17.89;75.07;153192.28;10462125;28;20037;-71
2023/09/16 08:09:24;;;;;;;2.65;1.95;;;;;;;17.99;76.13;153216.91;10461254;28;20044;-71
2023/09/16 08:14:26;;;;;;;2.83;2.08;;;;;;;18.36;72.05;153310.38;10462103;28;20120;-71
2023/09/16 08:19:31;;;;;;;3.65;1.92;;;;;;;18.48;70.30;153341.56;10461754;28;20061;-71
2023/09/16 08:24:34;;;;;;;2.22;2.03;;;;;;;18.67;70.75;153390.88;10461245;28;20045;-72
2023/09/16 08:29:35;;;;;;;2.75;1.90;;;;;;;18.90;69.14;153448.06;10460912;28;20037;-71
2023/09/16 08:34:37;;;;;;;3.35;2.10;;;;;;;19.06;69.75;153488.38;10462740;28;20112;-71
2023/09/16 08:39:39;;;;;;;3.25;2.50;;;;;;;19.21;66.92;153526.03;10459865;28;20045;-71
2023/09/16 08:44:44;;;;;;;2.42;1.88;;;;;;;19.24;68.43;153533.84;10459802;28;20117;-71
2023/09/16 08:49:52;;;;;;;2.15;1.73;;;;;;;19.49;66.92;153598.81;10458229;28;20091;-73
2023/09/16 08:54:55;;;;;;;3.38;2.05;;;;;;;19.73;66.54;153658.63;10461147;28;20079;-74
2023/09/16 08:59:58;;;;;;;2.20;2.00;;;;;;;19.71;66.79;153653.44;10459114;28;20135;-73
2023/09/16 09:05:00;;;;;;;2.00;1.80;;;;;;;19.94;66.38;153713.22;10459283;28;20092;-73
2023/09/16 09:10:03;;;;;;;3.65;2.20;;;;;;;20.15;64.45;153767.81;10459329;28;20068;-72
2023/09/16 09:15:10;;;;;;;2.88;2.20;;;;;;;20.52;65.35;153861.47;10459381;28;20057;-73
2023/09/16 09:20:18;;;;;;;2.55;2.35;;;;;;;20.81;62.81;153935.59;10461268;28;20087;-72
2023/09/16 09:25:21;;;;;;;2.03;1.80;;;;;;;21.19;62.65;154030.53;10459046;28;20151;-72
2023/09/16 09:30:27;;;;;;;2.20;2.00;;;;;;;21.63;60.50;154145.06;10458424;28;20068;-74
2023/09/16 09:35:31;;;;;;;2.25;2.05;;;;;;;22.45;57.45;154353.41;10458205;28;20041;-73
2023/09/16 09:40:32;;;;;;;2.42;1.95;;;;;;;22.78;57.56;154436.72;10459919;28;20048;-73
2023/09/16 09:45:37;;;;;;;1.65;1.50;;;;;;;23.35;55.43;154583.94;10457348;28;20048;-73
2023/09/16 09:50:39;;;;;;;2.23;1.50;;;;;;;23.33;54.15;154577.41;10456258;28;20049;-72
2023/09/16 09:55:41;;;;;;;2.00;1.80;;;;;;;23.62;53.44;154652.97;10462014;28;20112;-73
2023/09/16 10:00:50;;;;;;;2.92;1.90;;;;;;;24.31;52.01;154827.66;10476199;28;20072;-72
2023/09/16 10:05:52;;;;;;;1.98;1.65;;;;;;;24.72;52.43;154932.00;10487032;28;20098;-73
2023/09/16 10:10:54;;;;;;;2.45;2.08;;;;;;;25.10;49.81;155031.16;10498071;28;20106;-73
2023/09/16 10:16:00;;;;;;;2.38;1.95;;;;;;;25.34;48.72;155092.41;10415807;28;20061;-74
2023/09/16 10:21:02;;;;;;;2.40;1.70;;;;;;;25.73;48.75;155190.28;10415714;28;20037;-72
2023/09/16 10:26:04;;;;;;;1.63;1.52;;;;;;;25.71;48.67;155186.31;10433855;28;20079;-73
2023/09/16 10:31:06;;;;;;;1.45;1.30;;;;;;;25.91;48.02;155237.28;10499361;28;20124;-73
2023/09/16 10:36:11;;;;;;;2.80;1.92;;;;;;;25.61;47.47;155161.53;10497429;28;20510;-73
2023/09/16 10:41:16;;;;;;;1.85;1.65;;;;;;;26.36;46.27;155353.41;10500156;28;20079;-73
2023/09/16 10:46:21;;;;;;;2.38;1.50;;;;;;;26.56;47.71;155403.03;10498770;28;20056;-73
2023/09/16 10:51:23;;;;;;;7.65;1.88;;;;;;;26.62;46.97;155420.00;10498003;28;20045;-73
2023/09/16 10:56:29;;;;;;;2.00;1.60;;;;;;;27.12;44.75;155547.97;10498302;28;20040;-71
2023/09/16 11:01:36;;;;;;;2.47;1.50;;;;;;;26.95;45.38;155503.53;10501534;28;20072;-71
2023/09/16 11:06:38;;;;;;;1.98;1.80;;;;;;;27.15;45.27;155554.53;10506519;28;20040;-73
2023/09/16 11:11:41;;;;;;;2.45;1.70;;;;;;;27.20;44.26;155566.28;10505649;28;20045;-71
2023/09/16 11:16:50;;;;;;;1.60;1.50;;;;;;;26.96;45.33;155506.19;10504963;28;20063;-73
2023/09/16 11:21:52;;;;;;;2.45;1.90;;;;;;;26.85;44.95;155478.75;10505000;28;20111;-73
2023/09/16 11:26:59;;;;;;;4.60;2.03;;;;;;;26.73;45.52;155447.41;10504394;28;20054;-72
2023/09/16 11:32:02;;;;;;;5.35;2.08;;;;;;;26.95;47.36;155502.25;10505904;28;20064;-73
2023/09/16 11:37:09;;;;;;;2.80;1.65;;;;;;;27.13;45.44;155550.56;10504729;28;20067;-73
2023/09/16 11:42:15;;;;;;;10.55;2.40;;;;;;;26.74;47.82;155448.69;10504157;28;20545;-71
2023/09/16 11:47:16;;;;;;;1.65;1.55;;;;;;;26.87;45.89;155482.63;10504922;28;20079;-71
2023/09/16 11:52:18;;;;;;;4.05;1.80;;;;;;;26.92;45.95;155497.03;10506202;28;20102;-72
2023/09/16 11:57:20;;;;;;;2.33;1.50;;;;;;;26.90;46.46;155490.50;10502933;28;20067;-72
2023/09/16 12:02:22;;;;;;;1.92;1.40;;;;;;;27.10;44.58;155542.78;10504042;28;20055;-72
2023/09/16 12:07:25;;;;;;;1.80;1.60;;;;;;;26.59;45.00;155412.16;10504804;28;20120;-70
2023/09/16 12:12:29;;;;;;;1.65;1.55;;;;;;;26.23;45.77;155319.47;10502993;28;20090;-69
2023/09/16 12:17:32;;;;;;;1.73;1.50;;;;;;;25.80;47.20;155208.56;10503277;28;20507;-70
2023/09/16 12:22:34;;;;;;;3.97;2.00;;;;;;;25.67;46.13;155175.88;10501244;28;20040;-71
2023/09/16 12:27:36;;;;;;;3.53;1.60;;;;;;;25.61;46.51;155161.53;10501195;28;20210;-72
2023/09/16 12:32:49;;;;;;;10.20;1.90;;;;;;;25.59;46.82;155156.34;10502063;28;20079;-71
2023/09/16 12:37:51;;;;;;;4.63;1.70;;;;;;;25.38;46.90;155101.56;10504297;28;20411;-71
2023/09/16 12:42:53;;;;;;;2.72;1.85;;;;;;;25.53;46.97;155140.66;10501602;28;20113;-72
2023/09/16 12:47:56;;;;;;;3.35;1.60;;;;;;;25.70;45.88;155182.44;10501457;28;20090;-74
2023/09/16 12:52:58;;;;;;;3.33;1.35;;;;;;;25.82;45.34;155213.78;10501864;28;20052;-74
2023/09/16 12:58:00;;;;;;;3.22;1.80;;;;;;;25.78;44.93;155203.34;10502275;28;20166;-74
2023/09/16 13:03:03;;;;;;;1.60;1.50;;;;;;;25.64;44.65;155169.38;10501188;28;20040;-74
2023/09/16 13:08:05;;;;;;;1.60;1.50;;;;;;;25.62;45.14;155164.16;10501298;28;20048;-74
2023/09/16 13:13:08;;;;;;;1.90;1.48;;;;;;;25.52;44.63;155138.06;10500616;28;20040;-73
2023/09/16 13:18:11;;;;;;;1.75;1.45;;;;;;;25.62;45.45;155162.84;10483673;28;20051;-74
2023/09/16 13:23:20;;;;;;;1.95;1.30;;;;;;;25.60;44.62;155157.66;10499991;28;20040;-74
2023/09/16 13:28:24;;;;;;;95.10;11.52;;;;;;;25.64;45.06;155168.09;10501238;28;20044;-74
2023/09/16 13:33:47;;;;;;;3.10;1.70;;;;;;;25.56;44.13;155147.22;10500655;28;20451;-73
2023/09/16 13:38:52;;;;;;;370.83;23.88;;;;;;;25.59;45.06;155156.34;10501321;28;20048;-73
2023/09/16 13:43:54;;;;;;;3.03;1.50;;;;;;;25.47;44.87;155125.03;10499237;28;20040;-72
2023/09/16 13:48:55;;;;;;;7.32;1.83;;;;;;;25.39;45.30;155105.47;10500128;28;20043;-72
2023/09/16 13:53:57;;;;;;;1.70;1.58;;;;;;;25.49;45.90;155128.94;10498412;28;20503;-72
2023/09/16 13:58:59;;;;;;;3.25;1.70;;;;;;;25.40;45.91;155106.75;10498340;28;20087;-71
2023/09/16 14:04:02;;;;;;;165.15;9.82;;;;;;;25.56;44.82;155148.50;10501448;28;20454;-72
2023/09/16 14:09:04;;;;;;;3.38;1.50;;;;;;;25.40;45.60;155106.75;10497934;28;20047;-72
2023/09/16 14:14:06;;;;;;;1.40;1.30;;;;;;;25.41;45.93;155110.69;10499001;28;20411;-71
2023/09/16 14:19:08;;;;;;;2.30;1.50;;;;;;;25.44;45.33;155117.19;10499601;28;20049;-70
2023/09/16 14:24:10;;;;;;;3.95;1.30;;;;;;;25.41;45.38;155109.34;10499159;28;20098;-71
2023/09/16 14:29:12;;;;;;;23.40;4.30;;;;;;;25.30;45.97;155081.97;10498396;28;20037;-70
2023/09/16 14:34:13;;;;;;;1.98;1.30;;;;;;;25.32;45.65;155085.88;10498848;28;20051;-70
2023/09/16 14:39:18;;;;;;;3.45;1.73;;;;;;;25.30;46.00;155081.97;10505250;28;20496;-72
2023/09/16 14:44:20;;;;;;;5.28;1.77;;;;;;;25.30;45.91;155080.69;10505373;28;20056;-71
2023/09/16 14:49:23;;;;;;;1.90;1.77;;;;;;;25.28;46.52;155075.44;10505915;28;20049;-69
2023/09/16 14:54:26;;;;;;;2.78;1.73;;;;;;;25.31;46.05;155084.59;10507506;28;20044;-72
2023/09/16 14:59:28;;;;;;;1.55;1.42;;;;;;;25.36;45.82;155096.31;10509229;28;20045;-72
2023/09/16 15:04:30;;;;;;;2.55;1.80;;;;;;;25.17;47.46;155049.38;10508661;28;20060;-71
2023/09/16 15:09:32;;;;;;;1.50;1.40;;;;;;;24.94;48.14;154988.06;10509118;28;20045;-72
2023/09/16 15:14:33;;;;;;;6.13;1.85;;;;;;;24.96;46.12;154993.25;10507083;28;20102;-73
2023/09/16 15:19:35;;;;;;;2.15;1.35;;;;;;;24.83;46.50;154960.66;10508741;28;20519;-74
2023/09/16 15:24:38;;;;;;;1.50;1.30;;;;;;;24.89;46.90;154976.31;10509682;28;20052;-75
2023/09/16 15:29:39;;;;;;;2.97;1.92;;;;;;;24.79;47.31;154950.22;10490849;28;20040;-76
2023/09/16 15:34:41;;;;;;;1.50;1.40;;;;;;;24.90;46.94;154978.91;10507358;28;20067;-75
2023/09/16 15:39:43;;;;;;;3.33;1.60;;;;;;;24.66;47.60;154918.97;10505465;28;20053;-78
2023/09/16 15:44:47;;;;;;;1.85;1.75;;;;;;;24.48;49.05;154872.03;10503873;28;20123;-76
2023/09/16 15:49:49;;;;;;;2.30;1.83;;;;;;;24.45;48.33;154862.91;10502712;28;20055;-75
2023/09/16 15:54:50;;;;;;;2.20;2.00;;;;;;;24.46;48.26;154866.78;10505828;28;20044;-75
2023/09/16 15:59:52;;;;;;;2.13;2.00;;;;;;;24.38;49.13;154847.22;10486491;28;20132;-75
2023/09/16 16:04:54;;;;;;;2.28;1.75;;;;;;;24.31;49.17;154828.97;10503250;28;20098;-75
2023/09/16 16:09:56;;;;;;;2.03;1.77;;;;;;;24.30;49.75;154825.03;10503442;28;20396;-75
2023/09/16 16:14:58;;;;;;;1.90;1.80;;;;;;;24.14;49.90;154784.66;10503699;28;20531;-75
2023/09/16 16:20:00;;;;;;;1.90;1.80;;;;;;;24.01;50.41;154750.75;10503545;28;20098;-75
2023/09/16 16:25:03;;;;;;;2.95;2.75;;;;;;;23.66;51.85;154663.44;10500766;28;20044;-75
2023/09/16 16:30:06;;;;;;;3.60;2.10;;;;;;;23.57;52.32;154638.66;10502644;28;20079;-75
2023/09/16 16:35:08;;;;;;;4.82;4.32;;;;;;;23.26;53.48;154560.47;10501848;28;20086;-76
2023/09/16 16:40:10;;;;;;;3.63;3.33;;;;;;;23.14;53.90;154529.22;10502655;28;20039;-75
2023/09/16 16:45:12;;;;;;;4.15;3.17;;;;;;;22.93;54.65;154475.81;10503276;28;20079;-76
2023/09/16 16:50:16;;;;;;;2.88;2.67;;;;;;;22.60;56.00;154392.44;10503262;28;20060;-75
2023/09/16 16:55:18;;;;;;;4.10;2.28;;;;;;;22.44;56.85;154350.75;10500417;28;20052;-76
2023/09/16 17:00:20;;;;;;;2.50;2.13;;;;;;;22.26;57.66;154303.91;10502582;28;20040;-74
2023/09/16 17:05:22;;;;;;;2.67;2.33;;;;;;;22.05;58.74;154251.81;10501493;28;20066;-73
2023/09/16 17:10:27;;;;;;;3.13;2.30;;;;;;;21.85;59.88;154199.72;10500941;28;20062;-73
2023/09/16 17:15:29;;;;;;;2.95;2.75;;;;;;;21.55;61.01;154124.25;10501422;28;20041;-73
2023/09/16 17:20:31;;;;;;;2.33;2.13;;;;;;;21.37;61.32;154078.72;10501290;28;20040;-73
2023/09/16 17:25:35;;;;;;;3.17;2.60;;;;;;;21.26;62.51;154050.06;10498169;28;20068;-73
2023/09/16 17:30:37;;;;;;;3.83;3.50;;;;;;;21.03;63.49;153991.53;10500708;28;20048;-73
2023/09/16 17:35:39;;;;;;;6.40;5.88;;;;;;;20.83;64.95;153940.78;10499620;28;20055;-73
2023/09/16 17:40:41;;;;;;;5.30;4.90;;;;;;;20.58;66.31;153877.03;10500452;28;20039;-73
2023/09/16 17:45:43;;;;;;;6.13;5.53;;;;;;;20.38;67.04;153826.31;10501488;28;20086;-72
2023/09/16 17:50:45;;;;;;;7.22;6.72;;;;;;;20.26;67.53;153795.09;10501123;28;20079;-73
2023/09/16 17:55:47;;;;;;;8.00;7.40;;;;;;;20.21;69.50;153780.81;10501483;28;20041;-73
2023/09/16 18:00:49;;;;;;;9.65;8.85;;;;;;;20.02;70.62;153734.03;10481628;28;20044;-72
2023/09/16 18:05:50;;;;;;;12.07;11.07;;;;;;;19.80;71.33;153678.13;10500772;28;20044;-73
2023/09/16 18:10:52;;;;;;;10.98;10.00;;;;;;;19.64;72.59;153637.81;10498362;28;20036;-73
2023/09/16 18:15:55;;;;;;;9.32;8.52;;;;;;;19.47;73.33;153592.28;10500609;28;20040;-73
2023/09/16 18:20:58;;;;;;;9.90;9.13;;;;;;;19.35;74.28;153562.44;10499194;28;20045;-73
2023/09/16 18:26:01;;;;;;;9.00;8.15;;;;;;;19.20;75.63;153523.44;10500796;28;20098;-73
2023/09/16 18:31:03;;;;;;;9.13;8.40;;;;;;;19.12;77.24;153503.94;10500838;28;20396;-74
2023/09/16 18:36:07;;;;;;;8.40;7.80;;;;;;;18.99;77.88;153470.16;10499377;28;20040;-73
2023/09/16 18:41:09;;;;;;;7.80;7.20;;;;;;;18.84;79.18;153432.50;10499233;28;20044;-74
2023/09/16 18:46:11;;;;;;;8.20;7.43;;;;;;;18.65;80.27;153385.72;10502094;28;20128;-74
2023/09/16 18:51:14;;;;;;;8.70;7.90;;;;;;;18.47;79.94;153337.69;10500414;28;20040;-74
2023/09/16 18:56:17;;;;;;;9.15;8.35;;;;;;;18.41;80.52;153323.34;10499131;28;20570;-75
2023/09/16 19:01:19;;;;;;;9.98;8.98;;;;;;;18.53;82.68;153353.25;10500139;28;20033;-73
2023/09/16 19:06:21;;;;;;;10.55;9.75;;;;;;;18.45;83.28;153333.75;10498971;28;20105;-74
2023/09/16 19:11:24;;;;;;;10.43;9.40;;;;;;;18.32;83.20;153300.00;10500036;28;20559;-77
2023/09/16 19:16:26;;;;;;;11.05;10.05;;;;;;;18.09;84.08;153242.88;10499494;28;20060;-77
2023/09/16 19:21:28;;;;;;;11.20;10.30;;;;;;;17.92;85.19;153198.72;10501987;28;20037;-75
2023/09/16 19:26:30;;;;;;;10.45;9.65;;;;;;;17.99;85.23;153216.91;10507696;28;20071;-78
2023/09/16 19:31:32;;;;;;;9.98;9.25;;;;;;;18.13;86.42;153251.97;10491389;28;20060;-74
2023/09/16 19:36:34;;;;;;;10.43;9.73;;;;;;;18.17;86.11;153261.06;10509414;28;20106;-75
2023/09/16 19:41:36;;;;;;;10.38;9.57;;;;;;;17.92;86.73;153197.44;10507705;28;20041;-76
2023/09/16 19:46:38;;;;;;;10.55;9.75;;;;;;;17.88;87.53;153188.34;10506981;28;20090;-76
2023/09/16 19:51:55;;;;;;;10.15;9.45;;;;;;;17.75;88.14;153154.59;10505361;28;20504;-76
2023/09/16 19:56:57;;;;;;;10.25;9.45;;;;;;;17.87;87.97;153185.75;10506943;28;20040;-76
2023/09/16 20:02:05;;;;;;;10.65;9.95;;;;;;;17.79;87.55;153164.97;10505395;28;20054;-77
2023/09/16 20:07:09;;;;;;;10.32;9.52;;;;;;;17.59;88.22;153115.63;10506552;28;20047;-77
2023/09/16 20:12:11;;;;;;;11.75;10.85;;;;;;;17.48;88.57;153085.78;10505972;28;20044;-77
2023/09/16 20:17:13;;;;;;;10.82;10.02;;;;;;;17.52;90.52;153097.44;10508166;28;20036;-77
2023/09/16 20:22:15;;;;;;;9.80;9.07;;;;;;;17.63;90.07;153124.72;10506530;28;20048;-77
2023/09/16 20:27:19;;;;;;;9.75;9.05;;;;;;;17.59;90.21;153115.63;10503820;28;20043;-77
2023/09/16 20:32:20;;;;;;;9.93;9.02;;;;;;;17.70;88.59;153141.56;10505101;28;20040;-77
2023/09/16 20:37:22;;;;;;;8.63;8.00;;;;;;;17.47;88.78;153084.47;10503579;28;20097;-76
2023/09/16 20:42:26;;;;;;;9.25;8.60;;;;;;;17.45;88.40;153078.03;10507892;28;20067;-76
2023/09/16 20:47:28;;;;;;;10.35;9.55;;;;;;;17.42;87.79;153070.22;10506740;28;20047;-76
2023/09/16 20:52:30;;;;;;;10.18;9.38;;;;;;;17.44;88.09;153075.38;10503523;28;20451;-77
2023/09/16 20:57:32;;;;;;;8.65;8.05;;;;;;;17.32;88.33;153045.56;10503000;28;20408;-76
2023/09/16 21:02:34;;;;;;;8.13;7.53;;;;;;;17.21;88.75;153018.31;10504914;28;20135;-76
2023/09/16 21:07:36;;;;;;;8.60;7.90;;;;;;;17.17;89.29;153006.63;10484736;28;20052;-76
2023/09/16 21:12:40;;;;;;;8.27;7.68;;;;;;;17.09;89.87;152987.19;10502367;28;20048;-76
2023/09/16 21:17:41;;;;;;;7.18;6.60;;;;;;;17.07;89.43;152982.00;10500761;28;20087;-76
2023/09/16 21:22:43;;;;;;;7.55;6.70;;;;;;;17.04;88.61;152974.19;10503849;28;20157;-76
2023/09/16 21:27:45;;;;;;;7.95;7.35;;;;;;;16.92;89.15;152944.38;10499816;28;20117;-76
2023/09/16 21:32:49;;;;;;;7.03;6.43;;;;;;;16.85;89.44;152927.50;10499474;28;20045;-76
2023/09/16 21:37:51;;;;;;;7.50;6.97;;;;;;;16.92;90.23;152944.38;10501084;28;20136;-76
2023/09/16 21:42:54;;;;;;;7.88;7.25;;;;;;;16.94;90.27;152949.56;10502555;28;20066;-77
2023/09/16 21:47:56;;;;;;;9.35;8.65;;;;;;;16.76;92.65;152904.16;10503433;28;20063;-76
2023/09/16 21:52:57;;;;;;;8.13;7.53;;;;;;;16.66;92.52;152878.19;10499322;28;20049;-76
2023/09/16 21:57:59;;;;;;;9.55;8.65;;;;;;;16.54;93.59;152848.34;10501738;28;20048;-75
2023/09/16 22:03:02;;;;;;;8.38;7.78;;;;;;;16.51;94.17;152839.25;10501182;28;20464;-77
2023/09/16 22:08:05;;;;;;;10.18;9.38;;;;;;;16.56;94.95;152853.56;10501821;28;20110;-75
2023/09/16 22:13:07;;;;;;;9.25;8.50;;;;;;;16.37;95.61;152804.25;10500299;28;20037;-76
2023/09/16 22:18:09;;;;;;;8.73;8.00;;;;;;;16.32;96.72;152791.28;10499481;28;20119;-76
2023/09/16 22:23:11;;;;;;;10.15;9.43;;;;;;;16.33;97.18;152795.16;10498522;28;20180;-76
2023/09/16 22:28:12;;;;;;;8.75;8.15;;;;;;;16.60;95.99;152862.59;10503722;28;20123;-76
2023/09/16 22:33:14;;;;;;;8.70;8.10;;;;;;;16.42;97.18;152817.22;10505274;28;20037;-76
2023/09/16 22:38:16;;;;;;;10.00;9.20;;;;;;;16.31;96.69;152788.72;10502035;28;20045;-77
2023/09/16 22:43:18;;;;;;;9.05;8.35;;;;;;;16.40;95.46;152813.34;10497630;28;20055;-77
2023/09/16 22:48:20;;;;;;;10.32;9.48;;;;;;;16.49;94.99;152834.09;10497634;28;20481;-76
2023/09/16 22:53:22;;;;;;;10.20;9.35;;;;;;;16.19;95.99;152758.88;10500929;28;20045;-77
2023/09/16 22:58:23;;;;;;;9.65;8.85;;;;;;;16.16;97.40;152751.13;10504726;28;20039;-76
2023/09/16 23:03:25;;;;;;;9.90;9.20;;;;;;;16.19;95.69;152757.56;10505854;28;20092;-76
2023/09/16 23:08:28;;;;;;;9.68;8.88;;;;;;;15.89;97.68;152682.38;10506765;28;20040;-76